Circle, Alaska
Current Conditions -  °F | °C
As of 8:36 PM on Sunday 19 Oct 2014 (Local Time) from PFYU Reporting Station
Few Clouds Few Clouds  
Wind Chill: 16°   Ceiling: Unl
Heat Index: 27°   Visibility: 10mi
Dew Point: 19°   Wind: 12mph
Humidity: 74%   Direction: 50°NE
Pressure: 29.43"   Gusts: NA
Location:  65.83°N, 144.07°W
Report Text: PFYU 200436Z 05010KT 10SM FEW037 FEW090 M03/M07 A2943 RMK AO1
Loading
Personal Weather Stations






























Interactive Weather Map
Tropical Storm Tracking
New forecast layout! Learn more

10-Day Weather Forecast

Advertisements
Track Severe Weather on mobile